Anton Chico, New Mexico
Current Conditions -  °F | °C
As of 11:53 PM on Wednesday 17 Dec 2014 (Local Time) from KLVS Reporting Station
Clear Clear  
Wind Chill: 20°   Ceiling: Unl
Heat Index: 29°   Visibility: 10mi
Dew Point: 23°   Wind: 9mph
Humidity: 78%   Direction: 250°WSW
Pressure: 29.99"   Gusts: NA
Location:  35.2°N, 105.14°W
Report Text: KLVS 180653Z AUTO 25008KT 10SM CLR M02/M05 A2999 RMK AO2 SLP130 T10171050 400781061
Loading
Personal Weather Stations






























Interactive Weather Map New forecast layout! Learn more

10-Day Weather Forecast

Advertisements
Track Severe Weather on mobile